Time;durP1;ratioP1;P1;durP2;ratioP2;P2;SDS_P1;SDS_P2;PMS_P1;PMS_P2;Temp;Humidity;BMP_temperature;BMP_pressure;BME280_temperature;BME280_humidity;BME280_pressure;Samples;Min_cycle;Max_cycle;Signal;HPM_P1;HPM_P2
2023/09/08 00:00:06;;;;;;;6.68;5.78;;;19.00;77.70;;;;;;5034309;28;20112;-55
2023/09/08 00:02:33;;;;;;;7.85;6.18;;;19.00;77.80;;;;;;5036332;28;20092;-54
2023/09/08 00:05:02;;;;;;;6.97;5.78;;;19.10;78.00;;;;;;5016235;28;20026;-57
2023/09/08 00:07:30;;;;;;;7.00;5.80;;;19.00;77.80;;;;;;5033230;28;20116;-55
2023/09/08 00:09:57;;;;;;;7.45;5.90;;;19.00;77.60;;;;;;5047588;28;20458;-57
2023/09/08 00:12:23;;;;;;;7.72;6.38;;;18.90;77.80;;;;;;5033409;28;20450;-54
2023/09/08 00:14:52;;;;;;;8.32;5.85;;;19.00;77.30;;;;;;5033628;28;20072;-54
2023/09/08 00:17:22;;;;;;;7.03;5.70;;;19.00;77.70;;;;;;5055938;28;20111;-57
2023/09/08 00:20:01;;;;;;;9.18;6.25;;;18.90;77.60;;;;;;5050801;28;20294;-57
2023/09/08 00:22:31;;;;;;;15.32;7.45;;;18.90;77.50;;;;;;5059052;28;20032;-56
2023/09/08 00:24:58;;;;;;;6.75;4.68;;;18.90;77.30;;;;;;5073648;28;20052;-55
2023/09/08 00:27:27;;;;;;;9.48;6.18;;;18.90;77.40;;;;;;5051922;28;20041;-57
2023/09/08 00:29:54;;;;;;;6.15;5.10;;;18.90;77.20;;;;;;5061975;28;20037;-55
2023/09/08 00:32:22;;;;;;;6.88;5.65;;;18.90;77.10;;;;;;5050579;28;20612;-56
2023/09/08 00:34:53;;;;;;;5.65;5.05;;;18.90;77.20;;;;;;5033716;28;20026;-56
2023/09/08 00:37:24;;;;;;;7.43;5.68;;;18.90;76.90;;;;;;5060145;28;20347;-54
2023/09/08 00:39:50;;;;;;;6.78;5.53;;;18.90;76.50;;;;;;5071825;28;20028;-57
2023/09/08 00:42:18;;;;;;;8.63;5.65;;;18.90;76.70;;;;;;5039295;28;20030;-57
2023/09/08 00:44:45;;;;;;;10.75;5.43;;;18.90;76.70;;;;;;5033022;28;20386;-52
2023/09/08 00:47:16;;;;;;;7.70;5.55;;;18.90;76.80;;;;;;5045527;28;20063;-56
2023/09/08 00:49:43;;;;;;;8.48;5.95;;;18.90;77.10;;;;;;5059786;28;20041;-57
2023/09/08 00:52:10;;;;;;;7.53;5.60;;;18.80;76.90;;;;;;5045577;28;20032;-55
2023/09/08 00:54:40;;;;;;;7.97;5.93;;;18.80;77.30;;;;;;5073054;28;20108;-57
2023/09/08 00:57:07;;;;;;;6.03;5.10;;;18.80;77.20;;;;;;5039434;28;20060;-57
2023/09/08 00:59:35;;;;;;;6.80;5.90;;;18.80;77.30;;;;;;5053048;28;20061;-57
2023/09/08 01:02:07;;;;;;;8.73;5.63;;;18.80;77.20;;;;;;5065751;28;20125;-55
2023/09/08 01:04:40;;;;;;;7.03;5.88;;;18.80;77.50;;;;;;5047594;28;20026;-57
2023/09/08 01:07:14;;;;;;;10.10;5.60;;;18.80;77.50;;;;;;5056148;28;20086;-57
2023/09/08 01:09:42;;;;;;;7.28;5.55;;;18.70;77.40;;;;;;5072185;28;20028;-55
2023/09/08 01:12:17;;;;;;;7.22;6.15;;;18.70;77.50;;;;;;5072600;28;20020;-57
2023/09/08 01:14:46;;;;;;;6.45;5.50;;;18.70;77.40;;;;;;5053504;28;20068;-57
2023/09/08 01:17:15;;;;;;;6.80;6.03;;;18.70;77.30;;;;;;5067719;28;20614;-57
2023/09/08 01:19:46;;;;;;;7.57;5.93;;;18.70;77.50;;;;;;5072348;28;20032;-57
2023/09/08 01:22:38;;;;;;;7.43;5.75;;;18.70;77.10;;;;;;5064961;28;20315;-57
2023/09/08 01:25:21;;;;;;;7.95;6.63;;;18.70;77.30;;;;;;5066753;28;20040;-56
2023/09/08 01:27:53;;;;;;;8.73;6.68;;;18.70;77.40;;;;;;5071938;28;20025;-57
2023/09/08 01:30:32;;;;;;;7.07;6.38;;;18.60;77.70;;;;;;5061554;28;20021;-57
2023/09/08 01:33:13;;;;;;;7.53;6.25;;;18.60;77.70;;;;;;5055314;28;20072;-55
2023/09/08 01:35:44;;;;;;;8.52;5.78;;;18.60;78.10;;;;;;5034836;28;20029;-55
2023/09/08 01:38:11;;;;;;;6.50;5.88;;;18.60;78.10;;;;;;5057556;28;20029;-56
2023/09/08 01:40:38;;;;;;;13.45;6.50;;;18.60;78.20;;;;;;5032908;28;20359;-55
2023/09/08 01:43:05;;;;;;;7.25;5.57;;;18.60;77.90;;;;;;5063348;28;20025;-56
2023/09/08 01:45:35;;;;;;;9.05;5.90;;;18.50;78.30;;;;;;5052623;28;20359;-55
2023/09/08 01:48:02;;;;;;;7.07;6.38;;;18.50;78.40;;;;;;5038669;28;20064;-57
2023/09/08 01:50:28;;;;;;;9.52;6.55;;;18.50;78.20;;;;;;5032360;28;20038;-56
2023/09/08 01:52:55;;;;;;;7.15;6.20;;;18.50;78.10;;;;;;5060729;28;20457;-57
2023/09/08 01:55:22;;;;;;;6.97;6.05;;;18.50;78.00;;;;;;5046351;28;20030;-55
2023/09/08 01:57:54;;;;;;;9.23;6.78;;;18.50;78.20;;;;;;5032778;28;20030;-57
2023/09/08 02:00:23;;;;;;;7.10;6.38;;;18.50;78.30;;;;;;5035843;28;20041;-57
2023/09/08 02:02:56;;;;;;;7.45;6.07;;;18.50;78.30;;;;;;5072233;28;20040;-56
2023/09/08 02:05:25;;;;;;;7.72;6.03;;;18.50;78.10;;;;;;5054644;28;20037;-54
2023/09/08 02:07:55;;;;;;;8.48;6.03;;;18.50;78.30;;;;;;5050176;28;20036;-54
2023/09/08 02:10:22;;;;;;;10.27;6.22;;;18.40;78.60;;;;;;5018847;28;20113;-56
2023/09/08 02:12:50;;;;;;;10.43;6.40;;;18.40;78.40;;;;;;5049331;28;20111;-56
2023/09/08 02:15:17;;;;;;;7.05;5.95;;;18.40;78.70;;;;;;5033191;28;20025;-57
2023/09/08 02:17:44;;;;;;;7.10;6.13;;;18.40;78.90;;;;;;5054061;28;20056;-56
2023/09/08 02:20:11;;;;;;;6.78;5.97;;;18.40;79.10;;;;;;5047348;28;20095;-52
2023/09/08 02:22:40;;;;;;;10.40;7.03;;;18.40;79.20;;;;;;5057038;28;20047;-57
2023/09/08 02:25:07;;;;;;;8.40;6.28;;;18.30;79.30;;;;;;5033401;28;20110;-55
2023/09/08 02:27:34;;;;;;;6.38;5.55;;;18.30;79.10;;;;;;5047518;28;20047;-56
2023/09/08 02:30:08;;;;;;;9.13;6.15;;;18.30;79.20;;;;;;5049491;28;20056;-56
2023/09/08 02:32:43;;;;;;;10.23;7.25;;;18.20;79.30;;;;;;5050279;28;20025;-56
2023/09/08 02:35:15;;;;;;;9.10;6.53;;;18.20;79.40;;;;;;5047964;28;20484;-56
2023/09/08 02:37:46;;;;;;;7.68;6.60;;;18.20;79.20;;;;;;5045856;28;20037;-54
2023/09/08 02:40:16;;;;;;;8.77;5.88;;;18.20;79.20;;;;;;5050338;28;20347;-56
2023/09/08 02:42:45;;;;;;;8.85;6.30;;;18.10;79.60;;;;;;5038588;28;20112;-55
2023/09/08 02:45:11;;;;;;;8.10;6.73;;;18.10;79.50;;;;;;5039665;28;20033;-56
2023/09/08 02:47:39;;;;;;;7.72;6.28;;;18.10;79.50;;;;;;5049090;28;20122;-56
2023/09/08 02:50:05;;;;;;;8.15;6.15;;;18.10;79.10;;;;;;5037103;28;20044;-56
2023/09/08 02:52:34;;;;;;;12.40;6.53;;;18.10;79.50;;;;;;5029397;28;20022;-53
2023/09/08 02:55:04;;;;;;;9.07;6.35;;;18.00;79.50;;;;;;5030900;28;20056;-57
2023/09/08 02:57:30;;;;;;;12.50;6.32;;;18.00;79.50;;;;;;5045726;28;20498;-55
2023/09/08 03:00:02;;;;;;;9.73;6.55;;;18.00;79.50;;;;;;5028054;28;20040;-56
2023/09/08 03:02:33;;;;;;;9.82;7.55;;;18.00;79.80;;;;;;5031162;28;20130;-53
2023/09/08 03:05:01;;;;;;;7.72;6.05;;;17.90;79.80;;;;;;5026796;28;20025;-53
2023/09/08 03:07:27;;;;;;;9.40;6.35;;;18.00;79.70;;;;;;5027962;28;20033;-54
2023/09/08 03:09:55;;;;;;;8.48;6.50;;;18.00;79.70;;;;;;5038848;28;20470;-57
2023/09/08 03:12:25;;;;;;;9.10;6.40;;;17.90;79.30;;;;;;5011634;28;20026;-57
2023/09/08 03:14:51;;;;;;;8.10;6.35;;;17.90;79.90;;;;;;5028145;28;20131;-53
2023/09/08 03:17:23;;;;;;;11.65;7.22;;;17.90;79.80;;;;;;5011770;28;20117;-55
2023/09/08 03:19:51;;;;;;;8.77;7.53;;;17.90;80.30;;;;;;5011203;28;20521;-53
2023/09/08 03:22:21;;;;;;;8.50;7.03;;;17.90;80.10;;;;;;5049045;28;20029;-53
2023/09/08 03:24:54;;;;;;;6.80;5.97;;;17.80;80.20;;;;;;5027530;28;20026;-56
2023/09/08 03:27:25;;;;;;;12.23;7.20;;;17.80;80.30;;;;;;5032475;28;20045;-53
2023/09/08 03:29:55;;;;;;;17.17;7.10;;;17.80;80.20;;;;;;5054485;28;20414;-51
2023/09/08 03:32:21;;;;;;;7.63;6.85;;;17.80;80.40;;;;;;5031319;28;20022;-55
2023/09/08 03:35:03;;;;;;;8.43;7.38;;;17.80;80.30;;;;;;5015068;28;20064;-55
2023/09/08 03:37:30;;;;;;;7.05;6.30;;;17.70;80.70;;;;;;5050310;28;20103;-56
2023/09/08 03:39:56;;;;;;;8.05;6.60;;;17.70;80.80;;;;;;5048402;28;20030;-55
2023/09/08 03:42:23;;;;;;;8.32;6.60;;;17.70;80.80;;;;;;5034524;28;20030;-54
2023/09/08 03:44:59;;;;;;;9.73;6.40;;;17.70;80.80;;;;;;5029519;28;20080;-57
2023/09/08 03:47:26;;;;;;;7.85;6.60;;;17.60;81.00;;;;;;5051281;28;20033;-53
2023/09/08 03:49:55;;;;;;;7.95;6.05;;;17.60;80.80;;;;;;5056134;28;20102;-52
2023/09/08 03:52:24;;;;;;;7.78;6.72;;;17.50;81.30;;;;;;5051301;28;20029;-52
2023/09/08 03:54:51;;;;;;;8.10;6.82;;;17.50;81.30;;;;;;5034364;28;20018;-57
2023/09/08 03:57:19;;;;;;;8.13;6.85;;;17.50;81.20;;;;;;5036016;28;20029;-57
2023/09/08 03:59:45;;;;;;;11.25;6.30;;;17.50;81.40;;;;;;5033146;28;20537;-53
2023/09/08 04:02:14;;;;;;;7.88;6.50;;;17.40;81.70;;;;;;5047198;28;20043;-56
2023/09/08 04:04:43;;;;;;;12.18;7.10;;;17.40;81.80;;;;;;5067046;28;20060;-56
2023/09/08 04:07:09;;;;;;;7.35;6.22;;;17.40;82.10;;;;;;5052705;28;20072;-55
2023/09/08 04:09:39;;;;;;;9.57;6.60;;;17.40;82.00;;;;;;5038082;28;20033;-57
2023/09/08 04:12:10;;;;;;;10.52;7.32;;;17.30;82.00;;;;;;5063949;28;20520;-54
2023/09/08 04:14:40;;;;;;;8.32;6.57;;;17.40;82.00;;;;;;5056087;28;20036;-56
2023/09/08 04:17:08;;;;;;;8.40;6.60;;;17.30;82.40;;;;;;5054429;28;20025;-57
2023/09/08 04:19:35;;;;;;;9.88;7.32;;;17.30;82.40;;;;;;5036171;28;20604;-57
2023/09/08 04:22:02;;;;;;;7.03;6.32;;;17.20;82.60;;;;;;5064609;28;20032;-55
2023/09/08 04:24:29;;;;;;;8.73;7.38;;;17.20;82.70;;;;;;5033718;28;20060;-55
2023/09/08 04:26:59;;;;;;;10.82;7.40;;;17.10;82.90;;;;;;5019655;28;20033;-56
2023/09/08 04:29:30;;;;;;;8.18;7.38;;;17.10;83.10;;;;;;5057334;28;20026;-54
2023/09/08 04:31:57;;;;;;;8.13;6.75;;;17.10;83.20;;;;;;5059072;28;20367;-53
2023/09/08 04:34:32;;;;;;;7.47;6.60;;;17.00;83.30;;;;;;5059071;28;20025;-55
2023/09/08 04:37:01;;;;;;;7.60;6.78;;;17.00;83.50;;;;;;5058852;28;20025;-55
2023/09/08 04:39:32;;;;;;;7.80;7.10;;;16.90;83.80;;;;;;5050157;28;20166;-53
2023/09/08 04:42:01;;;;;;;7.78;6.78;;;16.90;84.00;;;;;;5016957;28;20115;-52
2023/09/08 04:44:30;;;;;;;8.95;7.13;;;16.80;84.20;;;;;;5030089;28;20051;-56
2023/09/08 04:46:56;;;;;;;7.60;6.68;;;16.70;84.20;;;;;;5049285;28;20406;-54
2023/09/08 04:49:28;;;;;;;9.32;7.90;;;16.70;84.40;;;;;;5050815;28;20141;-56
2023/09/08 04:51:55;;;;;;;8.57;7.18;;;16.60;84.50;;;;;;5048513;28;20052;-54
2023/09/08 04:54:22;;;;;;;7.97;7.18;;;16.60;84.80;;;;;;5036315;28;20025;-56
2023/09/08 04:56:50;;;;;;;14.10;7.57;;;16.50;84.90;;;;;;5046697;28;20314;-55
2023/09/08 04:59:20;;;;;;;8.73;7.47;;;16.50;85.10;;;;;;5051448;28;20365;-54
2023/09/08 05:01:52;;;;;;;8.85;7.95;;;16.50;85.40;;;;;;5050303;28;20103;-55
2023/09/08 05:04:19;;;;;;;8.55;7.70;;;16.50;85.60;;;;;;5026606;28;20379;-56
2023/09/08 05:06:45;;;;;;;13.43;8.68;;;16.50;85.70;;;;;;5044479;28;20043;-54
2023/09/08 05:09:16;;;;;;;8.30;7.50;;;16.40;85.90;;;;;;5042642;28;20068;-55
2023/09/08 05:11:43;;;;;;;7.57;6.88;;;16.40;85.90;;;;;;5030224;28;20083;-56
2023/09/08 05:14:09;;;;;;;9.30;6.60;;;16.40;86.10;;;;;;5036324;28;20048;-55
2023/09/08 05:16:37;;;;;;;9.70;7.45;;;16.50;86.40;;;;;;5037269;28;20064;-56
2023/09/08 05:19:04;;;;;;;10.27;7.73;;;16.50;86.30;;;;;;5049624;28;20044;-56
2023/09/08 05:21:34;;;;;;;7.75;7.05;;;16.40;86.40;;;;;;5052212;28;20024;-54
2023/09/08 05:24:01;;;;;;;8.43;7.60;;;16.50;86.50;;;;;;5017026;28;20366;-55
2023/09/08 05:26:27;;;;;;;9.55;7.35;;;16.40;86.70;;;;;;5028744;28;20500;-56
2023/09/08 05:28:54;;;;;;;8.70;7.80;;;16.50;86.70;;;;;;5042323;28;20033;-53
2023/09/08 05:31:26;;;;;;;11.05;9.02;;;16.50;86.70;;;;;;5030532;28;20446;-55
2023/09/08 05:33:53;;;;;;;8.93;8.13;;;16.50;86.80;;;;;;5052069;28;20054;-56
2023/09/08 05:36:24;;;;;;;8.73;7.78;;;16.50;86.90;;;;;;5048849;28;20068;-55
2023/09/08 05:38:58;;;;;;;11.57;7.90;;;16.50;86.90;;;;;;5050515;28;20145;-54
2023/09/08 05:41:28;;;;;;;11.23;8.60;;;16.50;87.00;;;;;;5062939;28;20037;-55
2023/09/08 05:44:02;;;;;;;9.95;8.27;;;16.50;87.00;;;;;;5008451;28;20037;-56
2023/09/08 05:46:32;;;;;;;9.27;8.27;;;16.60;87.00;;;;;;5048023;28;20092;-54
2023/09/08 05:49:05;;;;;;;10.77;9.18;;;16.70;86.70;;;;;;5041698;28;20438;-56
2023/09/08 05:51:34;;;;;;;9.70;7.97;;;16.70;86.30;;;;;;5047417;28;20040;-52
2023/09/08 05:54:08;;;;;;;10.52;7.47;;;16.80;86.20;;;;;;5054877;28;20021;-52
2023/09/08 05:56:39;;;;;;;10.38;8.05;;;16.90;86.10;;;;;;5053118;28;20028;-55
2023/09/08 05:59:06;;;;;;;12.52;9.55;;;16.90;85.80;;;;;;5050557;28;20033;-54
2023/09/08 06:01:39;;;;;;;10.07;7.88;;;16.90;85.30;;;;;;5027164;28;20064;-54
2023/09/08 06:04:09;;;;;;;10.65;9.32;;;17.00;85.40;;;;;;5053451;28;20033;-55
2023/09/08 06:06:37;;;;;;;11.25;7.65;;;17.00;85.10;;;;;;5047765;28;20557;-54
2023/09/08 06:09:07;;;;;;;9.00;7.88;;;17.10;85.00;;;;;;5048986;28;20029;-55
2023/09/08 06:11:42;;;;;;;10.60;8.10;;;17.10;85.00;;;;;;5031998;28;20013;-57
2023/09/08 06:14:18;;;;;;;9.50;8.02;;;17.20;85.00;;;;;;5027657;28;20032;-56
2023/09/08 06:16:45;;;;;;;9.68;7.80;;;17.20;85.10;;;;;;5042241;28;20410;-55
2023/09/08 06:19:12;;;;;;;9.65;7.90;;;17.30;85.00;;;;;;5031959;28;20093;-56
2023/09/08 06:21:41;;;;;;;10.77;8.68;;;17.30;84.80;;;;;;5039607;28;20036;-54
2023/09/08 06:24:08;;;;;;;10.15;7.85;;;17.40;84.60;;;;;;5065679;28;20069;-56
2023/09/08 06:29:21;;;;;;;9.30;8.23;;;17.40;84.30;;;;;;5031728;28;20064;-52
2023/09/08 06:31:47;;;;;;;8.65;7.78;;;17.50;84.40;;;;;;5046450;28;20098;-57
2023/09/08 06:34:12;;;;;;;10.07;7.57;;;17.50;84.10;;;;;;5046451;28;20509;-54
2023/09/08 06:36:45;;;;;;;8.85;7.88;;;17.60;84.10;;;;;;5043028;28;20022;-56
2023/09/08 06:39:17;;;;;;;9.27;8.00;;;17.70;84.00;;;;;;5046348;28;20029;-57
2023/09/08 06:41:51;;;;;;;10.20;8.88;;;17.70;84.10;;;;;;5034451;28;20033;-55
2023/09/08 06:44:20;;;;;;;9.25;8.23;;;17.80;83.80;;;;;;5051380;28;20029;-57
2023/09/08 06:46:47;;;;;;;10.05;8.15;;;17.80;83.60;;;;;;5051184;28;20108;-57
2023/09/08 06:49:16;;;;;;;8.50;7.70;;;17.90;83.60;;;;;;5052033;28;20439;-55
2023/09/08 06:51:47;;;;;;;10.43;8.05;;;17.90;83.60;;;;;;5042831;28;20053;-56
2023/09/08 06:54:17;;;;;;;10.73;7.90;;;17.90;83.50;;;;;;5059965;28;20067;-57
2023/09/08 06:56:43;;;;;;;;;;;18.00;83.50;;;;;;5038264;28;20052;-57
2023/09/08 06:59:10;;;;;;;10.55;8.45;;;18.00;83.60;;;;;;5070355;28;20614;-54
2023/09/08 07:01:40;;;;;;;11.05;8.48;;;18.10;83.50;;;;;;5059804;28;20025;-56
2023/09/08 07:04:12;;;;;;;7.93;7.13;;;18.10;83.70;;;;;;5065814;28;20101;-55
2023/09/08 07:06:46;;;;;;;9.65;7.75;;;18.20;83.80;;;;;;5070487;28;20068;-58
2023/09/08 07:09:16;;;;;;;9.82;7.70;;;18.20;83.90;;;;;;5062989;28;20061;-55
2023/09/08 07:11:45;;;;;;;8.75;7.85;;;18.30;83.80;;;;;;5051617;28;20035;-56
2023/09/08 07:14:12;;;;;;;9.30;8.25;;;18.30;83.70;;;;;;5045770;28;20048;-57
2023/09/08 07:16:46;;;;;;;9.55;8.65;;;18.40;83.80;;;;;;5051439;28;20028;-57
2023/09/08 07:19:15;;;;;;;9.38;8.45;;;18.40;83.70;;;;;;5071532;28;20349;-58
2023/09/08 07:21:42;;;;;;;11.63;8.52;;;18.50;83.50;;;;;;5063830;28;20338;-58
2023/09/08 07:24:21;;;;;;;9.57;8.68;;;18.50;83.40;;;;;;5066179;28;20112;-56
2023/09/08 07:26:49;;;;;;;9.40;8.30;;;18.60;83.40;;;;;;5024753;28;20025;-57
2023/09/08 07:29:16;;;;;;;11.00;8.05;;;18.70;83.20;;;;;;5059217;28;20032;-57
2023/09/08 07:31:42;;;;;;;9.93;8.32;;;18.90;83.10;;;;;;5058562;28;20498;-57
2023/09/08 07:34:12;;;;;;;10.13;8.35;;;18.90;82.40;;;;;;5060033;28;20031;-54
2023/09/08 07:36:38;;;;;;;21.25;8.63;;;19.10;81.20;;;;;;5067670;28;20024;-58
2023/09/08 07:39:08;;;;;;;8.70;7.90;;;19.40;80.40;;;;;;5058095;28;20072;-58
2023/09/08 07:41:36;;;;;;;12.63;8.07;;;19.70;79.50;;;;;;5057470;28;20025;-58
2023/09/08 07:44:05;;;;;;;9.15;8.25;;;20.00;78.80;;;;;;5046518;28;20714;-57
2023/09/08 07:46:40;;;;;;;8.77;7.38;;;20.40;77.60;;;;;;5047648;28;20033;-57
2023/09/08 07:49:15;;;;;;;11.80;7.35;;;20.70;76.70;;;;;;5050491;28;20041;-55
2023/09/08 07:51:45;;;;;;;11.35;7.55;;;21.20;75.10;;;;;;5052053;28;20041;-57
2023/09/08 07:54:12;;;;;;;8.25;7.30;;;21.50;72.70;;;;;;5033970;28;20555;-57
2023/09/08 07:56:40;;;;;;;9.68;7.35;;;21.80;72.00;;;;;;5018211;28;20088;-55
2023/09/08 07:59:10;;;;;;;7.78;6.55;;;22.10;73.00;;;;;;5019406;28;20433;-58
2023/09/08 08:01:39;;;;;;;9.82;6.65;;;22.30;71.50;;;;;;5047850;28;20036;-57
2023/09/08 08:04:07;;;;;;;7.65;5.85;;;22.60;71.40;;;;;;5049591;28;20461;-55
2023/09/08 08:06:33;;;;;;;7.63;5.70;;;22.90;69.90;;;;;;5053150;28;20462;-57
2023/09/08 08:09:00;;;;;;;6.82;6.05;;;23.20;69.50;;;;;;5029147;28;20033;-56
2023/09/08 08:11:26;;;;;;;9.93;6.55;;;23.40;69.00;;;;;;5019914;28;20710;-56
2023/09/08 08:13:56;;;;;;;8.43;6.03;;;23.70;69.00;;;;;;5032165;28;20162;-57
2023/09/08 08:16:27;;;;;;;7.95;6.30;;;23.90;67.70;;;;;;5054587;28;20025;-55
2023/09/08 08:18:53;;;;;;;9.55;6.30;;;24.20;67.20;;;;;;5046733;28;20060;-57
2023/09/08 08:21:26;;;;;;;8.45;5.70;;;24.40;66.30;;;;;;5053324;28;20775;-58
2023/09/08 08:23:54;;;;;;;6.95;6.25;;;24.50;67.30;;;;;;5048761;28;20036;-58
2023/09/08 08:26:28;;;;;;;6.95;6.25;;;24.80;67.40;;;;;;5034388;28;20077;-57
2023/09/08 08:28:55;;;;;;;8.13;6.68;;;25.00;65.50;;;;;;5048449;28;20021;-58
2023/09/08 08:31:22;;;;;;;9.65;6.68;;;24.90;64.40;;;;;;5035560;28;20021;-56
2023/09/08 08:33:49;;;;;;;7.63;5.88;;;25.00;64.20;;;;;;5052329;28;20031;-59
2023/09/08 08:36:18;;;;;;;9.73;5.70;;;25.30;63.70;;;;;;5050579;28;20029;-57
2023/09/08 08:38:47;;;;;;;9.32;7.10;;;25.40;64.20;;;;;;5051607;28;20020;-57
2023/09/08 08:41:17;;;;;;;;;;;25.50;63.20;;;;;;5050325;28;20043;-57
2023/09/08 08:43:56;;;;;;;9.48;6.40;;;25.60;63.00;;;;;;5035257;28;20007;-57
2023/09/08 08:46:28;;;;;;;10.48;7.32;;;25.80;62.30;;;;;;5042798;28;20025;-55
2023/09/08 08:48:59;;;;;;;8.60;5.70;;;25.80;63.40;;;;;;5035811;28;20042;-57
2023/09/08 08:51:30;;;;;;;8.43;5.30;;;25.90;63.30;;;;;;5004843;28;20052;-56
2023/09/08 08:53:57;;;;;;;6.80;6.03;;;25.90;63.00;;;;;;5034129;28;20030;-55
2023/09/08 08:56:31;;;;;;;12.07;6.18;;;26.00;61.10;;;;;;5018571;28;20374;-57
2023/09/08 08:58:58;;;;;;;7.60;6.25;;;26.20;61.30;;;;;;5017383;28;20038;-56
2023/09/08 09:01:30;;;;;;;7.00;6.30;;;26.20;60.40;;;;;;5028453;28;20056;-57
2023/09/08 09:04:06;;;;;;;8.35;6.47;;;26.10;62.20;;;;;;5030053;28;20105;-58
2023/09/08 09:06:32;;;;;;;8.40;6.80;;;26.20;61.40;;;;;;5030801;28;20537;-58
2023/09/08 09:08:59;;;;;;;7.63;6.10;;;26.20;60.60;;;;;;5035437;28;20112;-57
2023/09/08 09:11:33;;;;;;;10.68;6.30;;;26.10;61.80;;;;;;5034269;28;20117;-58
2023/09/08 09:14:02;;;;;;;12.15;6.45;;;26.20;61.70;;;;;;4998152;28;20026;-58
2023/09/08 09:16:43;;;;;;;10.35;6.10;;;26.30;61.40;;;;;;5045787;28;20099;-58
2023/09/08 09:19:29;;;;;;;;;;;;;;;;;;;;;
2023/09/08 09:22:04;;;;;;;10.43;6.78;;;26.40;62.60;;;;;;5016491;28;20361;-56
2023/09/08 09:24:46;;;;;;;10.90;6.78;;;26.50;61.70;;;;;;5003663;28;20069;-58
2023/09/08 09:27:17;;;;;;;8.25;5.55;;;26.60;60.90;;;;;;5014979;28;20044;-58
2023/09/08 09:30:01;;;;;;;9.65;6.60;;;26.70;61.00;;;;;;5012458;28;20036;-58
2023/09/08 09:32:29;;;;;;;6.85;6.15;;;26.60;64.50;;;;;;5019329;28;20037;-55
2023/09/08 09:35:00;;;;;;;7.73;5.97;;;26.70;62.60;;;;;;5045505;28;20021;-58
2023/09/08 09:37:27;;;;;;;7.50;6.47;;;26.80;62.50;;;;;;5035550;28;20100;-58
2023/09/08 09:39:54;;;;;;;9.38;6.45;;;26.90;60.60;;;;;;5023882;28;20282;-58
2023/09/08 09:42:21;;;;;;;6.57;5.93;;;26.90;59.90;;;;;;5032235;28;20135;-57
2023/09/08 09:44:51;;;;;;;8.13;6.40;;;26.90;61.30;;;;;;5025383;28;20536;-58
2023/09/08 09:47:19;;;;;;;8.30;6.10;;;26.90;60.40;;;;;;5016039;28;20040;-58
2023/09/08 09:49:57;;;;;;;8.98;5.88;;;27.10;61.70;;;;;;5033799;28;20049;-56
2023/09/08 09:52:26;;;;;;;11.02;7.00;;;27.20;61.60;;;;;;5029001;28;20049;-57
2023/09/08 09:54:56;;;;;;;7.47;6.78;;;27.30;61.50;;;;;;5050608;28;20048;-58
2023/09/08 09:57:25;;;;;;;9.05;7.10;;;27.40;60.10;;;;;;5045948;28;20044;-57
2023/09/08 09:59:53;;;;;;;8.02;7.22;;;27.40;60.30;;;;;;5032319;28;20112;-57
2023/09/08 10:02:22;;;;;;;8.30;7.40;;;27.30;61.50;;;;;;5063139;28;20330;-58
2023/09/08 10:05:00;;;;;;;7.25;6.05;;;27.40;60.90;;;;;;5050855;28;20082;-58
2023/09/08 10:07:35;;;;;;;14.05;7.10;;;27.40;59.90;;;;;;5052971;28;20029;-58
2023/09/08 10:10:05;;;;;;;9.63;6.88;;;27.60;60.50;;;;;;5063482;28;20043;-58
2023/09/08 10:12:36;;;;;;;8.45;6.70;;;27.60;59.50;;;;;;5065121;28;20469;-55
2023/09/08 10:15:11;;;;;;;8.13;6.65;;;27.70;61.70;;;;;;5042864;28;20029;-57
2023/09/08 10:17:43;;;;;;;11.02;6.60;;;27.60;61.00;;;;;;5041223;28;20033;-58
2023/09/08 10:20:15;;;;;;;9.88;7.18;;;27.60;60.90;;;;;;5012200;28;20082;-58
2023/09/08 10:22:46;;;;;;;9.00;7.13;;;27.70;60.70;;;;;;5059055;28;20116;-58
2023/09/08 10:25:21;;;;;;;7.30;6.50;;;27.70;62.10;;;;;;5063695;28;20043;-57
2023/09/08 10:27:49;;;;;;;8.18;7.35;;;27.70;61.80;;;;;;5036890;28;20128;-58
2023/09/08 10:30:17;;;;;;;8.85;7.95;;;27.70;60.90;;;;;;5065568;28;20052;-59
2023/09/08 10:32:44;;;;;;;10.63;7.20;;;27.90;62.20;;;;;;5061190;28;20052;-59
2023/09/08 10:35:13;;;;;;;9.05;7.85;;;27.90;62.10;;;;;;5027444;28;20446;-53
2023/09/08 10:37:41;;;;;;;9.43;6.80;;;27.80;60.60;;;;;;5043329;28;20034;-56
2023/09/08 10:40:33;;;;;;;6.65;5.72;;;27.80;60.50;;;;;;5041215;28;20488;-57
2023/09/08 10:43:12;;;;;;;13.85;7.03;;;27.90;62.00;;;;;;5034056;28;20044;-57
2023/09/08 10:45:49;;;;;;;10.53;7.17;;;27.90;61.10;;;;;;5045421;28;20475;-58
2023/09/08 10:48:16;;;;;;;9.02;7.25;;;27.90;60.70;;;;;;5053313;28;20036;-58
2023/09/08 10:50:43;;;;;;;8.57;6.20;;;28.00;61.10;;;;;;5050994;28;20463;-58
2023/09/08 10:53:17;;;;;;;7.70;6.38;;;28.00;63.20;;;;;;5056926;28;20373;-57
2023/09/08 10:55:53;;;;;;;7.30;5.82;;;28.30;62.30;;;;;;5032672;28;20112;-53
2023/09/08 10:58:45;;;;;;;10.02;6.95;;;28.40;61.00;;;;;;5051670;28;20053;-58
2023/09/08 11:01:30;;;;;;;6.90;5.90;;;28.40;59.90;;;;;;5022440;28;20029;-56
2023/09/08 11:04:10;;;;;;;9.63;6.40;;;28.40;60.80;;;;;;5055457;28;20029;-58
2023/09/08 11:06:44;;;;;;;11.27;6.30;;;28.50;59.60;;;;;;5055474;28;20174;-58
2023/09/08 11:09:09;;;;;;;10.85;7.78;;;28.50;58.70;;;;;;5053191;28;20037;-57
2023/09/08 11:11:36;;;;;;;6.80;6.10;;;28.50;60.30;;;;;;5056671;28;20331;-58
2023/09/08 11:14:04;;;;;;;7.53;6.50;;;28.60;62.10;;;;;;5055069;28;20013;-56
2023/09/08 11:16:33;;;;;;;7.38;6.25;;;28.50;61.10;;;;;;5063321;28;20396;-59
2023/09/08 11:19:10;;;;;;;;;;;28.50;60.10;;;;;;5043158;28;20101;-58
2023/09/08 11:21:39;;;;;;;10.15;7.03;;;28.50;60.90;;;;;;5060823;28;19917;-58
2023/09/08 11:24:06;;;;;;;;;;;28.50;61.20;;;;;;5035265;28;20029;-58
2023/09/08 11:26:35;;;;;;;9.90;6.63;;;28.50;58.90;;;;;;5062259;28;19908;-57
2023/09/08 11:29:02;;;;;;;10.57;6.25;;;28.50;60.40;;;;;;5052799;28;20044;-57
2023/09/08 11:31:28;;;;;;;10.00;7.28;;;28.50;60.50;;;;;;5051668;28;20141;-57
2023/09/08 11:34:01;;;;;;;8.45;6.38;;;28.50;58.80;;;;;;5061094;28;20111;-57
2023/09/08 11:36:29;;;;;;;9.43;6.35;;;28.40;59.50;;;;;;5056350;28;20029;-58
2023/09/08 11:39:05;;;;;;;8.02;6.10;;;28.60;61.30;;;;;;5044572;28;20078;-59
2023/09/08 11:41:38;;;;;;;7.05;5.68;;;28.40;59.40;;;;;;5056780;28;20124;-56
2023/09/08 11:44:37;;;;;;;8.88;6.32;;;28.40;59.60;;;;;;5051748;28;20033;-59
2023/09/08 11:47:09;;;;;;;9.38;6.22;;;28.40;60.20;;;;;;5056445;28;20104;-55
2023/09/08 11:49:39;;;;;;;6.90;6.18;;;28.40;59.90;;;;;;5023435;28;20051;-59
2023/09/08 11:52:09;;;;;;;7.65;6.28;;;28.40;58.80;;;;;;5035086;28;20049;-56
2023/09/08 11:54:42;;;;;;;7.88;6.10;;;28.40;58.90;;;;;;5042696;28;20040;-53
2023/09/08 11:57:26;;;;;;;7.53;5.97;;;28.40;61.20;;;;;;5031943;28;20025;-55
2023/09/08 11:59:55;;;;;;;8.65;5.85;;;28.40;60.80;;;;;;5051666;28;20028;-60
2023/09/08 12:02:25;;;;;;;7.32;5.70;;;28.30;58.90;;;;;;5033817;28;20385;-58
2023/09/08 12:04:56;;;;;;;7.50;6.28;;;28.30;59.50;;;;;;5059020;28;20103;-57
2023/09/08 12:07:24;;;;;;;10.50;6.45;;;28.30;59.20;;;;;;5044820;28;20040;-58
2023/09/08 12:09:52;;;;;;;9.80;6.30;;;28.30;58.60;;;;;;5051342;28;20091;-55
2023/09/08 12:12:19;;;;;;;8.38;6.63;;;28.40;60.10;;;;;;5035141;28;20200;-59
2023/09/08 12:14:52;;;;;;;7.25;5.70;;;28.40;60.60;;;;;;5045886;28;20029;-59
2023/09/08 12:17:26;;;;;;;8.82;6.13;;;28.40;61.00;;;;;;5067750;28;20386;-60
2023/09/08 12:19:53;;;;;;;7.25;5.75;;;28.30;61.20;;;;;;5053530;28;20442;-60
2023/09/08 12:22:22;;;;;;;7.63;6.22;;;28.40;60.10;;;;;;5059059;28;20119;-60
2023/09/08 12:25:01;;;;;;;9.52;5.70;;;28.30;58.00;;;;;;5068076;28;20469;-57
2023/09/08 12:27:35;;;;;;;6.00;5.32;;;28.30;58.70;;;;;;5036222;28;20068;-60
2023/09/08 12:30:04;;;;;;;6.45;4.80;;;28.30;59.90;;;;;;5045283;28;20047;-59
2023/09/08 12:32:33;;;;;;;7.05;5.60;;;28.30;58.90;;;;;;5044827;28;20017;-59
2023/09/08 12:35:05;;;;;;;;;;;28.30;58.30;;;;;;5016738;28;20113;-60
2023/09/08 12:37:37;;;;;;;9.43;5.70;;;28.30;59.50;;;;;;5016709;28;19920;-59
2023/09/08 12:40:05;;;;;;;9.73;5.53;;;28.20;58.00;;;;;;5016354;28;20522;-58
2023/09/08 12:42:34;;;;;;;8.98;5.50;;;28.10;58.60;;;;;;5046134;28;20369;-59
2023/09/08 12:45:06;;;;;;;9.98;5.55;;;28.20;59.10;;;;;;5060456;28;20322;-60
2023/09/08 12:47:35;;;;;;;7.25;5.05;;;28.20;58.40;;;;;;5063274;28;20024;-59
2023/09/08 12:50:05;;;;;;;9.18;5.97;;;28.20;59.00;;;;;;5073519;28;20029;-60
2023/09/08 12:52:31;;;;;;;6.97;4.72;;;28.20;58.40;;;;;;5025257;28;20029;-59
2023/09/08 12:55:00;;;;;;;8.35;5.35;;;28.20;57.60;;;;;;5019923;28;20021;-59
2023/09/08 12:57:26;;;;;;;8.70;5.13;;;28.10;56.90;;;;;;5025531;28;20041;-59
2023/09/08 12:59:54;;;;;;;7.93;5.10;;;28.00;56.70;;;;;;5025857;28;20044;-60
2023/09/08 13:02:20;;;;;;;7.00;5.32;;;28.00;58.00;;;;;;5014887;28;20025;-59
2023/09/08 13:04:48;;;;;;;11.73;5.90;;;27.90;57.20;;;;;;5024510;28;20033;-60